Time;durP1;ratioP1;P1;durP2;ratioP2;P2;SDS_P1;SDS_P2;PMS_P1;PMS_P2;Temp;Humidity;BMP_temperature;BMP_pressure;BME280_temperature;BME280_humidity;BME280_pressure;Samples;Min_cycle;Max_cycle;Signal;HPM_P1;HPM_P2
2022/05/25 00:00:10;;;;;;;24.85;19.02;;;;;;;17.59;nan;-24307.03;5076615;28;20581;-58
2022/05/25 00:02:36;;;;;;;25.42;18.33;;;;;;;17.67;nan;-24309.41;5079432;28;20624;-57
2022/05/25 00:05:03;;;;;;;26.75;19.48;;;;;;;17.39;nan;-24301.59;5075947;28;20184;-57
2022/05/25 00:07:28;;;;;;;22.80;17.48;;;;;;;17.76;nan;-24311.78;5072473;28;20173;-57
2022/05/25 00:09:53;;;;;;;26.15;19.02;;;;;;;17.75;nan;-24311.38;5079415;28;20178;-57
2022/05/25 00:12:20;;;;;;;25.60;18.52;;;;;;;17.55;nan;-24306.06;5073951;28;20169;-57
2022/05/25 00:14:47;;;;;;;26.08;17.65;;;;;;;17.70;nan;-24310.13;5076249;28;20181;-57
2022/05/25 00:17:12;;;;;;;22.90;16.80;;;;;;;17.75;nan;-24311.50;5072767;28;20209;-58
2022/05/25 00:22:22;;;;;;;23.95;17.38;;;;;;;18.18;nan;-24323.34;5071104;28;20189;-56
2022/05/25 00:24:48;;;;;;;21.00;16.25;;;;;;;17.77;nan;-24311.91;5077045;28;20177;-56
2022/05/25 00:27:13;;;;;;;23.10;17.15;;;;;;;17.97;nan;-24317.50;5076147;28;20268;-56
2022/05/25 00:29:39;;;;;;;23.48;16.83;;;;;;;17.83;nan;-24313.75;5077847;28;20568;-56
2022/05/25 00:32:06;;;;;;;22.35;17.05;;;;;;;17.77;nan;-24312.06;5077844;28;20205;-56
2022/05/25 00:34:33;;;;;;;23.67;17.05;;;;;;;17.71;nan;-24310.25;5078238;28;20174;-56
2022/05/25 00:36:58;;;;;;;23.42;17.50;;;;;;;17.61;nan;-24307.59;5080400;28;20205;-55
2022/05/25 00:39:24;;;;;;;25.05;18.23;;;;;;;17.87;nan;-24314.72;5073704;28;20182;-56
2022/05/25 00:41:52;;;;;;;23.58;16.85;;;;;;;17.45;nan;-24303.13;5077544;28;20182;-56
2022/05/25 00:44:18;;;;;;;26.13;17.88;;;;;;;17.58;nan;-24306.75;5075028;28;20263;-56
2022/05/25 00:46:45;;;;;;;22.35;16.42;;;;;;;17.64;nan;-24308.56;5073830;28;20228;-57
2022/05/25 00:49:26;;;;;;;23.25;17.27;;;;;;;18.01;nan;-24318.63;5079373;28;20584;-57
2022/05/25 00:52:00;;;;;;;22.10;15.93;;;;;;;18.06;nan;-24320.16;5077470;28;20604;-56
2022/05/25 00:54:32;;;;;;;24.83;18.08;;;;;;;18.18;nan;-24323.34;5078990;28;20217;-56
2022/05/25 00:57:03;;;;;;;24.27;18.30;;;;;;;18.05;nan;-24319.72;5081835;28;20239;-58
2022/05/25 00:59:32;;;;;;;24.10;16.70;;;;;;;18.30;nan;-24326.56;5076898;28;20660;-57
2022/05/25 01:01:58;;;;;;;22.00;16.23;;;;;;;18.08;nan;-24320.72;5075708;28;20186;-55
2022/05/25 01:04:25;;;;;;;22.77;16.52;;;;;;;18.18;nan;-24323.22;5078365;28;20210;-57
2022/05/25 01:07:10;;;;;;;17.23;12.55;;;;;;;18.45;nan;-24330.75;5077030;28;20661;-56
2022/05/25 01:09:53;;;;;;;18.38;12.68;;;;;;;18.47;nan;-24331.28;5075994;28;20454;-57
2022/05/25 01:12:36;;;;;;;18.23;13.07;;;;;;;18.51;nan;-24332.41;5077590;28;20797;-57
2022/05/25 01:15:32;;;;;;;15.73;11.38;;;;;;;16.95;nan;-24289.31;5076231;28;20174;-57
2022/05/25 01:18:07;;;;;;;15.85;10.40;;;;;;;18.52;nan;-24332.81;5079334;28;20205;-57
2022/05/25 01:20:48;;;;;;;15.30;11.30;;;;;;;18.29;nan;-24326.28;5092852;28;20216;-57
2022/05/25 01:23:51;;;;;;;14.52;10.30;;;;;;;18.61;nan;-24335.06;5078198;28;20295;-56
2022/05/25 01:26:35;;;;;;;13.82;10.15;;;;;;;18.56;nan;-24333.66;5082472;28;20184;-57
2022/05/25 01:29:23;;;;;;;14.40;10.00;;;;;;;18.51;nan;-24332.41;5079319;28;20170;-57
2022/05/25 01:32:05;;;;;;;19.13;10.40;;;;;;;18.19;nan;-24323.63;5056304;28;20209;-57
2022/05/25 01:35:12;;;;;;;13.38;9.75;;;;;;;18.41;nan;-24329.75;5075748;28;20714;-57
2022/05/25 01:38:04;;;;;;;15.20;9.95;;;;;;;18.12;nan;-24321.69;5078316;28;20202;-57
2022/05/25 01:40:50;;;;;;;14.13;9.90;;;;;;;18.28;nan;-24326.13;5077093;28;20182;-57
2022/05/25 01:43:39;;;;;;;15.23;10.32;;;;;;;18.21;nan;-24324.19;5076494;28;20192;-57
2022/05/25 01:46:21;;;;;;;14.32;10.30;;;;;;;18.23;nan;-24324.75;5069891;28;20695;-57
2022/05/25 01:48:47;;;;;;;19.75;11.63;;;;;;;18.01;nan;-24318.75;5076805;28;20291;-57
2022/05/25 01:51:18;;;;;;;18.23;12.75;;;;;;;18.35;nan;-24328.09;5072765;28;20560;-57
2022/05/25 01:53:50;;;;;;;18.25;12.93;;;;;;;18.22;nan;-24324.34;5075724;28;20190;-56
2022/05/25 01:56:18;;;;;;;16.90;12.48;;;;;;;18.39;nan;-24329.22;5074289;28;20225;-56
2022/05/25 01:58:50;;;;;;;19.45;12.32;;;;;;;18.31;nan;-24326.97;5076857;28;20271;-56
2022/05/25 02:01:15;;;;;;;18.88;12.98;;;;;;;18.36;nan;-24328.38;5076033;28;20180;-56
2022/05/25 02:06:45;;;;;;;14.18;10.02;;;;;;;18.35;nan;-24328.09;5075450;28;20267;-56
2022/05/25 02:09:32;;;;;;;13.32;9.93;;;;;;;17.56;nan;-24306.19;5076008;28;20177;-56
2022/05/25 02:12:14;;;;;;;13.60;9.23;;;;;;;18.37;nan;-24328.66;5074071;28;20173;-56
2022/05/25 02:14:54;;;;;;;13.63;8.88;;;;;;;18.34;nan;-24327.81;5074882;28;20184;-57
2022/05/25 02:17:29;;;;;;;13.35;8.13;;;;;;;18.35;nan;-24328.09;5077877;28;20732;-56
2022/05/25 02:20:09;;;;;;;11.38;7.53;;;;;;;18.15;nan;-24322.53;5075587;28;20184;-57
2022/05/25 02:22:45;;;;;;;9.95;7.20;;;;;;;18.36;nan;-24328.38;5077955;28;20186;-57
2022/05/25 02:25:21;;;;;;;14.07;7.60;;;;;;;18.17;nan;-24323.06;5073727;28;20189;-55
2022/05/25 02:28:09;;;;;;;8.77;6.25;;;;;;;18.00;nan;-24318.34;5077695;28;20177;-57
2022/05/25 02:30:37;;;;;;;8.70;6.03;;;;;;;17.37;nan;-24301.03;5078831;28;20594;-56
2022/05/25 02:33:27;;;;;;;8.05;5.47;;;;;;;18.01;nan;-24318.63;5072650;28;20276;-56
2022/05/25 02:35:56;;;;;;;9.52;5.95;;;;;;;17.85;nan;-24314.16;5073053;28;20194;-56
2022/05/25 02:38:21;;;;;;;7.88;5.80;;;;;;;18.10;nan;-24321.13;5072703;28;20216;-56
2022/05/25 02:40:47;;;;;;;7.25;5.38;;;;;;;17.82;nan;-24313.31;5073718;28;20178;-56
2022/05/25 02:43:12;;;;;;;7.72;5.60;;;;;;;17.92;nan;-24316.25;5074098;28;20217;-56
2022/05/25 02:45:38;;;;;;;8.35;5.53;;;;;;;;;;5078546;28;20200;-56
2022/05/25 02:48:05;;;;;;;9.40;5.80;;;;;;;17.80;nan;-24312.91;5077445;28;20178;-56
2022/05/25 02:50:30;;;;;;;9.55;5.55;;;;;;;18.04;nan;-24319.59;5072369;28;20617;-57
2022/05/25 02:52:56;;;;;;;8.63;5.57;;;;;;;18.08;nan;-24320.56;5075530;28;20183;-57
2022/05/25 02:55:23;;;;;;;7.25;5.03;;;;;;;17.94;nan;-24316.66;5076389;28;20217;-57
2022/05/25 02:57:48;;;;;;;8.68;5.40;;;;;;;18.11;nan;-24321.41;5075751;28;20700;-58
2022/05/25 03:00:15;;;;;;;10.25;5.75;;;;;;;18.01;nan;-24318.75;5075433;28;20193;-55
2022/05/25 03:02:40;;;;;;;9.38;5.70;;;;;;;18.07;nan;-24320.28;5077005;28;20588;-56
2022/05/25 03:05:09;;;;;;;9.30;6.13;;;;;;;18.10;nan;-24321.25;5074086;28;20923;-57
2022/05/25 03:07:35;;;;;;;9.35;6.00;;;;;;;18.23;nan;-24324.75;5078283;28;20182;-57
2022/05/25 03:10:01;;;;;;;8.25;6.00;;;;;;;18.01;nan;-24318.63;5074456;28;20237;-57
2022/05/25 03:12:27;;;;;;;14.05;6.43;;;;;;;18.21;nan;-24324.06;5076872;28;20170;-57
2022/05/25 03:14:52;;;;;;;9.88;5.75;;;;;;;18.26;nan;-24325.44;5076586;28;20188;-58
2022/05/25 03:17:18;;;;;;;11.73;6.10;;;;;;;18.30;nan;-24326.56;5072402;28;20230;-57
2022/05/25 03:19:50;;;;;;;14.68;6.45;;;;;;;18.04;nan;-24319.59;5072585;28;20182;-57
2022/05/25 03:22:16;;;;;;;9.93;5.57;;;;;;;18.20;nan;-24323.91;5072529;28;20570;-57
2022/05/25 03:24:41;;;;;;;11.40;6.35;;;;;;;17.92;nan;-24316.09;5075616;28;20276;-58
2022/05/25 03:27:07;;;;;;;11.85;6.65;;;;;;;17.99;nan;-24318.06;5091283;28;20606;-56
2022/05/25 03:29:33;;;;;;;10.95;6.10;;;;;;;17.92;nan;-24316.25;5076059;28;20169;-57
2022/05/25 03:31:59;;;;;;;12.50;6.65;;;;;;;17.62;nan;-24307.88;5075648;28;20189;-57
2022/05/25 03:34:25;;;;;;;12.90;7.30;;;;;;;17.89;nan;-24315.28;5073651;28;20264;-56
2022/05/25 03:36:54;;;;;;;11.73;6.90;;;;;;;17.80;nan;-24312.91;5070520;28;20656;-57
2022/05/25 03:39:24;;;;;;;11.98;6.55;;;;;;;17.63;nan;-24308.28;5070636;28;20230;-57
2022/05/25 03:41:58;;;;;;;10.70;6.57;;;;;;;17.64;nan;-24308.44;5075141;28;20174;-57
2022/05/25 03:44:23;;;;;;;11.25;6.43;;;;;;;17.63;nan;-24308.28;5074637;28;20185;-57
2022/05/25 03:46:49;;;;;;;10.65;6.13;;;;;;;17.67;nan;-24309.41;5075883;28;20186;-56
2022/05/25 03:49:16;;;;;;;12.50;6.22;;;;;;;17.36;nan;-24300.75;5075532;28;20231;-57
2022/05/25 03:51:42;;;;;;;10.98;6.15;;;;;;;17.37;nan;-24300.91;5075978;28;20188;-57
2022/05/25 03:54:08;;;;;;;11.98;6.22;;;;;;;17.54;nan;-24305.78;5074965;28;20182;-57
2022/05/25 03:56:34;;;;;;;10.05;5.53;;;;;;;17.58;nan;-24306.91;5075954;28;20185;-57
2022/05/25 03:59:00;;;;;;;12.50;5.82;;;;;;;17.89;nan;-24315.41;5075345;28;20202;-56
2022/05/25 04:01:25;;;;;;;9.18;5.25;;;;;;;17.79;nan;-24312.47;5073390;28;20234;-57
2022/05/25 04:03:51;;;;;;;10.63;5.53;;;;;;;17.77;nan;-24311.91;5075712;28;20178;-57
2022/05/25 04:06:16;;;;;;;12.02;5.75;;;;;;;17.88;nan;-24315.00;5075923;28;20178;-57
2022/05/25 04:08:41;;;;;;;12.75;5.65;;;;;;;17.95;nan;-24317.09;5074916;28;20181;-57
2022/05/25 04:11:07;;;;;;;10.70;5.10;;;;;;;17.63;nan;-24308.28;5074445;28;20181;-57
2022/05/25 04:13:32;;;;;;;15.45;5.40;;;;;;;17.43;nan;-24302.56;5074772;28;20559;-57
2022/05/25 04:15:58;;;;;;;10.98;5.13;;;;;;;17.73;nan;-24310.81;5076567;28;20170;-57
2022/05/25 04:18:23;;;;;;;12.18;5.60;;;;;;;17.40;nan;-24301.88;5074589;28;20660;-58
2022/05/25 04:20:49;;;;;;;10.07;5.82;;;;;;;17.44;nan;-24303.00;5074828;28;20248;-57
2022/05/25 04:23:14;;;;;;;10.93;5.60;;;;;;;17.74;nan;-24311.22;5074507;28;20713;-59
2022/05/25 04:25:41;;;;;;;9.52;5.50;;;;;;;17.33;nan;-24299.91;5074198;28;20177;-58
2022/05/25 04:28:07;;;;;;;14.40;5.32;;;;;;;17.29;nan;-24298.81;5074325;28;20186;-57
2022/05/25 04:30:33;;;;;;;14.02;5.55;;;;;;;17.56;nan;-24306.19;5073358;28;20225;-58
2022/05/25 04:32:58;;;;;;;15.68;5.38;;;;;;;17.61;nan;-24307.75;5072069;28;20641;-58
2022/05/25 04:35:26;;;;;;;8.65;5.05;;;;;;;17.89;nan;-24315.41;5070595;28;20178;-58
2022/05/25 04:37:52;;;;;;;9.68;4.43;;;;;;;16.96;nan;-24289.59;5073064;28;20206;-58
2022/05/25 04:40:33;;;;;;;8.70;4.57;;;;;;;17.78;nan;-24312.19;5071565;28;20177;-57
2022/05/25 04:43:02;;;;;;;9.00;5.13;;;;;;;17.77;nan;-24311.91;5074422;28;20247;-58
2022/05/25 04:45:27;;;;;;;8.43;5.13;;;;;;;17.77;nan;-24312.06;5074271;28;20599;-57
2022/05/25 04:47:55;;;;;;;18.05;5.50;;;;;;;17.67;nan;-24309.41;5073626;28;20197;-56
2022/05/25 04:50:22;;;;;;;8.43;4.88;;;;;;;17.47;nan;-24303.69;5073850;28;20232;-56
2022/05/25 04:52:48;;;;;;;9.93;5.82;;;;;;;17.42;nan;-24302.28;5072078;28;20308;-57
2022/05/25 04:57:59;;;;;;;10.25;5.50;;;;;;;17.93;nan;-24316.38;5053603;28;20216;-57
2022/05/25 05:00:25;;;;;;;9.00;5.45;;;;;;;18.07;nan;-24320.44;5076406;28;20189;-57
2022/05/25 05:02:50;;;;;;;14.00;5.82;;;;;;;18.13;nan;-24321.97;5070871;28;20637;-57
2022/05/25 05:05:17;;;;;;;9.73;5.22;;;;;;;17.91;nan;-24315.81;5070652;28;20327;-57
2022/05/25 05:07:43;;;;;;;9.75;5.70;;;;;;;18.17;nan;-24323.06;5073642;28;20275;-58
2022/05/25 05:10:09;;;;;;;12.30;6.07;;;;;;;17.97;nan;-24317.63;5077019;28;20173;-57
2022/05/25 05:12:34;;;;;;;9.63;5.03;;;;;;;17.55;nan;-24305.91;5071055;28;20551;-56
2022/05/25 05:15:00;;;;;;;9.82;5.38;;;;;;;17.36;nan;-24300.63;5079575;28;20265;-56
2022/05/25 05:17:25;;;;;;;10.00;5.43;;;;;;;17.81;nan;-24313.03;5074243;28;20213;-58
2022/05/25 05:19:51;;;;;;;10.57;5.88;;;;;;;17.69;nan;-24309.84;5074207;28;20231;-57
2022/05/25 05:22:17;;;;;;;10.07;5.20;;;;;;;17.75;nan;-24311.50;5076756;28;20611;-58
2022/05/25 05:24:42;;;;;;;12.77;6.13;;;;;;;18.16;nan;-24322.66;5074152;28;20335;-57
2022/05/25 05:27:08;;;;;;;9.02;5.38;;;;;;;18.19;nan;-24323.63;5076488;28;20649;-57
2022/05/25 05:29:34;;;;;;;11.18;6.40;;;;;;;18.08;nan;-24320.72;5078568;28;20174;-57
2022/05/25 05:32:00;;;;;;;10.30;6.10;;;;;;;18.13;nan;-24321.81;5074487;28;20194;-58
2022/05/25 05:34:28;;;;;;;8.43;5.70;;;;;;;18.09;nan;-24320.84;5072942;28;20185;-57
2022/05/25 05:37:05;;;;;;;10.95;6.10;;;;;;;18.06;nan;-24320.16;5074516;28;20182;-57
2022/05/25 05:39:36;;;;;;;9.23;5.45;;;;;;;18.17;nan;-24322.94;5076665;28;20189;-58
2022/05/25 05:42:05;;;;;;;9.65;6.10;;;;;;;18.30;nan;-24326.56;5079456;28;20261;-59
2022/05/25 05:44:37;;;;;;;12.00;5.18;;;;;;;18.13;nan;-24321.97;5076451;28;20176;-57
2022/05/25 05:47:06;;;;;;;7.45;5.22;;;;;;;18.87;nan;-24342.31;5076088;28;20605;-57
2022/05/25 05:49:31;;;;;;;8.43;4.90;;;;;;;18.75;nan;-24338.97;5078998;28;20188;-57
2022/05/25 05:51:57;;;;;;;7.85;4.78;;;;;;;18.97;nan;-24345.22;5076181;28;20174;-57
2022/05/25 05:54:23;;;;;;;7.93;4.97;;;;;;;19.15;nan;-24349.94;5074929;28;20261;-58
2022/05/25 05:56:49;;;;;;;7.47;4.95;;;;;;;19.17;nan;-24350.66;5074907;28;20205;-57
2022/05/25 05:59:14;;;;;;;8.65;5.10;;;;;;;19.38;nan;-24356.50;5075825;28;20240;-58
2022/05/25 06:01:42;;;;;;;9.90;5.07;;;;;;;19.33;nan;-24355.09;5076123;28;20184;-58
2022/05/25 06:04:09;;;;;;;10.63;4.65;;;;;;;18.94;nan;-24344.25;5078836;28;20181;-59
2022/05/25 06:06:34;;;;;;;9.45;5.32;;;;;;;19.01;nan;-24346.06;5078318;28;20185;-58
2022/05/25 06:09:03;;;;;;;13.25;5.38;;;;;;;19.12;nan;-24349.13;5080181;28;20177;-58
2022/05/25 06:11:28;;;;;;;9.93;5.43;;;;;;;19.27;nan;-24353.28;5112918;27;20632;-58
2022/05/25 06:13:54;;;;;;;13.82;5.80;;;;;;;18.80;nan;-24340.34;5082790;28;20269;-58
2022/05/25 06:21:48;;;;;;;15.48;6.75;;;;;;;18.73;nan;-24338.53;5078734;28;20227;-57
2022/05/25 06:24:14;;;;;;;12.18;5.85;;;;;;;19.11;nan;-24348.97;5079045;28;20181;-58
2022/05/25 06:26:39;;;;;;;8.50;5.47;;;;;;;19.33;nan;-24355.09;5078128;28;20174;-58
2022/05/25 06:29:05;;;;;;;11.32;6.32;;;;;;;19.14;nan;-24349.81;5078648;28;20546;-58
2022/05/25 06:31:32;;;;;;;9.75;5.03;;;;;;;19.38;nan;-24356.50;5079377;28;20189;-58
2022/05/25 06:33:58;;;;;;;12.00;6.32;;;;;;;19.19;nan;-24351.06;5079775;28;20644;-59
2022/05/25 06:36:26;;;;;;;11.45;5.95;;;;;;;19.46;nan;-24358.44;5077694;28;20182;-57
2022/05/25 06:38:52;;;;;;;11.20;6.38;;;;;;;19.16;nan;-24350.38;5077582;28;20251;-59
2022/05/25 06:41:18;;;;;;;11.68;6.28;;;;;;;19.34;nan;-24355.38;5079276;28;20177;-58
2022/05/25 06:43:44;;;;;;;14.18;6.65;;;;;;;18.06;nan;-24320.00;5077547;28;20178;-57
2022/05/25 06:46:12;;;;;;;15.80;6.75;;;;;;;19.18;nan;-24350.78;5079203;28;20239;-57
2022/05/25 06:48:38;;;;;;;13.68;6.97;;;;;;;18.95;nan;-24344.66;5078101;28;20185;-58
2022/05/25 06:51:17;;;;;;;14.15;6.70;;;;;;;19.57;nan;-24361.66;5079153;28;20174;-58
2022/05/25 06:53:43;;;;;;;18.58;7.72;;;;;;;19.89;nan;-24370.41;5077679;28;20185;-59
2022/05/25 06:56:08;;;;;;;13.63;7.72;;;;;;;19.82;nan;-24368.47;5078753;28;20742;-58
2022/05/25 06:58:35;;;;;;;16.83;7.38;;;;;;;19.99;nan;-24373.19;5079435;28;20209;-57
2022/05/25 07:01:02;;;;;;;13.38;6.82;;;;;;;20.33;nan;-24382.50;5074402;28;20185;-59
2022/05/25 07:03:28;;;;;;;18.85;6.70;;;;;;;18.39;nan;-24329.06;5077751;28;20715;-59
2022/05/25 07:05:54;;;;;;;12.50;7.05;;;;;;;19.99;nan;-24373.19;5078729;28;20659;-58
2022/05/25 07:08:19;;;;;;;13.73;6.90;;;;;;;20.25;nan;-24380.41;5077454;28;20176;-58
2022/05/25 07:10:46;;;;;;;14.60;6.43;;;;;;;20.13;nan;-24377.06;5077834;28;20215;-58
2022/05/25 07:13:16;;;;;;;12.23;6.28;;;;;;;20.47;nan;-24386.38;5079162;28;20646;-58
2022/05/25 07:15:43;;;;;;;14.52;6.65;;;;;;;20.25;nan;-24380.25;5076297;28;20626;-57
2022/05/25 07:18:09;;;;;;;14.40;7.15;;;;;;;19.98;nan;-24372.91;5078013;28;20225;-58
2022/05/25 07:20:34;;;;;;;18.17;7.35;;;;;;;20.51;nan;-24387.50;5076407;28;20269;-58
2022/05/25 07:23:00;;;;;;;11.90;6.47;;;;;;;21.19;nan;-24405.94;5081745;28;20713;-57
2022/05/25 07:25:25;;;;;;;14.18;6.07;;;;;;;21.47;nan;-24413.69;5076544;28;20612;-58
2022/05/25 07:27:51;;;;;;;17.52;7.30;;;;;;;21.59;nan;-24417.03;5075555;28;20281;-58
2022/05/25 07:30:17;;;;;;;14.15;6.38;;;;;;;22.19;nan;-24433.38;5077915;28;20173;-58
2022/05/25 07:32:43;;;;;;;13.93;7.35;;;;;;;21.37;nan;-24411.06;5074565;28;20256;-59
2022/05/25 07:35:12;;;;;;;14.77;7.57;;;;;;;21.28;nan;-24408.44;5073267;28;20219;-58
2022/05/25 07:37:40;;;;;;;16.95;6.93;;;;;;;21.04;nan;-24401.91;5074515;28;20227;-58
2022/05/25 07:40:06;;;;;;;14.05;7.07;;;;;;;21.70;nan;-24420.06;5074538;28;20189;-57
2022/05/25 07:42:31;;;;;;;17.08;7.55;;;;;;;21.12;nan;-24404.28;5076646;28;20573;-57
2022/05/25 07:44:59;;;;;;;16.67;7.25;;;;;;;20.95;nan;-24399.41;5076905;28;20204;-58
2022/05/25 07:47:27;;;;;;;13.60;7.65;;;;;;;21.14;nan;-24404.84;5072159;28;20174;-58
2022/05/25 07:49:53;;;;;;;14.90;7.57;;;;;;;21.66;nan;-24418.81;5078630;28;20188;-58
2022/05/25 07:52:20;;;;;;;15.35;7.50;;;;;;;21.28;nan;-24408.44;5073594;28;20260;-58
2022/05/25 07:54:47;;;;;;;15.43;8.07;;;;;;;21.49;nan;-24414.41;5068804;28;20332;-58
2022/05/25 07:57:13;;;;;;;15.25;7.38;;;;;;;22.08;nan;-24430.47;5077723;28;20217;-59
2022/05/25 07:59:40;;;;;;;14.18;7.55;;;;;;;21.93;nan;-24426.44;5076289;28;20178;-59
2022/05/25 08:07:48;;;;;;;8.88;6.50;;;;;;;21.72;nan;-24420.50;5075294;28;20204;-58
2022/05/25 08:10:16;;;;;;;11.25;7.32;;;;;;;21.78;nan;-24422.16;5080210;28;20177;-58
2022/05/25 08:12:44;;;;;;;12.02;7.22;;;;;;;21.85;nan;-24424.22;5074127;28;20610;-58
2022/05/25 08:15:11;;;;;;;12.75;7.43;;;;;;;21.91;nan;-24425.91;5054560;28;20567;-58
2022/05/25 08:17:37;;;;;;;14.82;8.43;;;;;;;22.16;nan;-24432.53;5075746;28;20209;-60
2022/05/25 08:20:05;;;;;;;14.68;7.05;;;;;;;22.08;nan;-24430.31;5077360;28;20230;-57
2022/05/25 08:22:30;;;;;;;13.10;7.60;;;;;;;21.89;nan;-24425.34;5079337;28;20174;-58
2022/05/25 08:24:56;;;;;;;14.30;7.80;;;;;;;22.41;nan;-24439.47;5077732;28;20635;-59
2022/05/25 08:27:22;;;;;;;12.05;6.95;;;;;;;22.16;nan;-24432.53;5077300;28;20170;-59
2022/05/25 08:29:47;;;;;;;12.18;7.43;;;;;;;21.95;nan;-24426.88;5078142;28;20208;-59
2022/05/25 08:32:14;;;;;;;13.95;7.93;;;;;;;21.93;nan;-24426.44;5076173;28;20216;-59
2022/05/25 08:34:40;;;;;;;12.02;7.63;;;;;;;22.31;nan;-24436.84;5074872;28;20181;-58
2022/05/25 08:37:06;;;;;;;12.52;7.45;;;;;;;22.27;nan;-24435.72;5077972;28;20189;-58
2022/05/25 08:39:32;;;;;;;16.25;7.68;;;;;;;22.00;nan;-24428.38;5075880;28;20189;-59
2022/05/25 08:42:01;;;;;;;10.15;7.10;;;;;;;22.75;nan;-24448.88;5072989;28;20243;-58
2022/05/25 08:44:27;;;;;;;14.13;7.05;;;;;;;22.84;nan;-24451.34;5075821;28;20240;-58
2022/05/25 08:46:56;;;;;;;12.07;7.00;;;;;;;23.28;nan;-24463.38;5075520;28;20189;-59
2022/05/25 08:49:24;;;;;;;13.32;7.07;;;;;;;23.29;nan;-24463.50;5079536;28;20653;-58
2022/05/25 08:51:55;;;;;;;13.95;7.05;;;;;;;23.09;nan;-24458.00;5079389;28;20237;-59
2022/05/25 08:54:21;;;;;;;11.10;6.95;;;;;;;23.08;nan;-24457.84;5081488;28;20303;-60
2022/05/25 08:57:20;;;;;;;10.38;6.38;;;;;;;22.82;nan;-24450.81;5082603;28;20607;-58
2022/05/25 08:59:51;;;;;;;9.05;6.63;;;;;;;23.24;nan;-24462.13;5042236;28;20353;-58
2022/05/25 09:02:38;;;;;;;13.20;7.78;;;;;;;24.56;nan;-24498.16;5083024;28;20173;-58
2022/05/25 09:05:11;;;;;;;11.13;7.25;;;;;;;24.76;nan;-24503.66;5080786;28;20173;-61
2022/05/25 09:07:50;;;;;;;13.85;6.70;;;;;;;23.63;nan;-24472.78;5080544;28;20261;-58
2022/05/25 09:10:18;;;;;;;9.88;6.95;;;;;;;23.50;nan;-24469.31;5080476;28;20173;-58
2022/05/25 09:12:46;;;;;;;12.05;7.97;;;;;;;23.73;nan;-24475.53;5083144;28;20188;-58
2022/05/25 09:15:24;;;;;;;12.02;7.00;;;;;;;24.13;nan;-24486.56;5078245;28;20248;-58
2022/05/25 09:18:05;;;;;;;10.23;6.57;;;;;;;24.68;nan;-24501.31;5080449;28;20270;-58
2022/05/25 09:20:38;;;;;;;15.13;8.13;;;;;;;25.53;nan;-24524.72;5081151;28;20174;-58
2022/05/25 09:23:03;;;;;;;12.00;7.25;;;;;;;26.02;nan;-24537.94;5081486;28;20201;-58
2022/05/25 09:25:30;;;;;;;13.68;7.68;;;;;;;25.63;nan;-24527.19;5082814;28;20224;-58
2022/05/25 09:28:00;;;;;;;11.13;6.90;;;;;;;25.12;nan;-24513.31;5079793;28;20231;-59
2022/05/25 09:30:28;;;;;;;10.65;6.95;;;;;;;24.99;nan;-24509.84;5083075;28;20264;-59
2022/05/25 09:33:01;;;;;;;11.32;7.07;;;;;;;25.63;nan;-24527.19;5077570;28;20247;-58
2022/05/25 09:35:31;;;;;;;15.13;8.07;;;;;;;24.53;nan;-24497.47;5079179;28;20674;-59
2022/05/25 09:38:03;;;;;;;13.45;7.60;;;;;;;24.64;nan;-24500.50;5079126;28;20209;-59
2022/05/25 09:40:50;;;;;;;12.02;6.75;;;;;;;25.34;nan;-24519.50;5081747;28;20177;-59
2022/05/25 09:43:25;;;;;;;10.75;7.00;;;;;;;25.20;nan;-24515.63;5083455;28;20257;-58
2022/05/25 09:45:57;;;;;;;12.63;7.78;;;;;;;25.25;nan;-24516.88;5078711;28;20572;-58
2022/05/25 09:48:26;;;;;;;12.55;7.20;;;;;;;25.72;nan;-24529.81;5081691;28;20185;-58
2022/05/25 09:50:54;;;;;;;12.70;8.15;;;;;;;25.69;nan;-24529.00;5078730;28;20181;-58
2022/05/25 09:53:24;;;;;;;15.52;8.27;;;;;;;25.65;nan;-24527.75;5081013;28;20708;-58
2022/05/25 09:56:03;;;;;;;15.88;8.20;;;;;;;25.20;nan;-24515.50;5078942;28;20226;-60
2022/05/25 09:58:35;;;;;;;15.20;8.10;;;;;;;25.70;nan;-24529.25;5080219;28;20215;-58
2022/05/25 10:01:22;;;;;;;16.15;9.30;;;;;;;26.13;nan;-24540.94;5075758;28;20194;-58
2022/05/25 10:03:48;;;;;;;15.18;9.07;;;;;;;26.13;nan;-24540.81;5079195;28;20192;-59
2022/05/25 10:06:23;;;;;;;18.20;9.80;;;;;;;26.15;nan;-24541.50;5082399;28;20178;-59
2022/05/25 10:09:12;;;;;;;19.17;9.55;;;;;;;26.11;nan;-24540.41;5080212;28;20189;-59
2022/05/25 10:12:15;;;;;;;18.30;9.57;;;;;;;26.18;nan;-24542.19;5074468;28;20669;-58
2022/05/25 10:14:53;;;;;;;17.92;10.30;;;;;;;26.16;nan;-24541.78;5075519;28;20178;-59
2022/05/25 10:17:30;;;;;;;17.52;9.35;;;;;;;26.40;nan;-24548.09;5081130;28;20197;-59
2022/05/25 10:19:57;;;;;;;17.52;9.52;;;;;;;26.52;nan;-24551.38;5077482;28;20185;-58
2022/05/25 10:22:38;;;;;;;15.95;9.35;;;;;;;26.87;nan;-24561.00;5077873;28;20264;-58
2022/05/25 10:25:29;;;;;;;14.73;8.75;;;;;;;26.76;nan;-24557.97;5080986;28;20187;-59
2022/05/25 10:27:56;;;;;;;15.70;9.80;;;;;;;26.76;nan;-24557.97;5071008;28;20197;-59
2022/05/25 10:39:17;;;;;;;16.00;9.02;;;;;;;22.79;nan;-24449.97;5074740;28;20209;-59
2022/05/25 10:41:43;;;;;;;16.23;8.90;;;;;;;27.12;nan;-24567.84;5075256;28;20173;-58
2022/05/25 10:44:21;;;;;;;17.52;10.10;;;;;;;27.13;nan;-24568.13;5079917;28;20222;-60
2022/05/25 10:46:57;;;;;;;16.33;9.82;;;;;;;27.39;nan;-24574.97;5077365;28;20181;-58
2022/05/25 10:49:43;;;;;;;15.25;9.27;;;;;;;27.65;nan;-24582.25;5081669;28;20546;-59
2022/05/25 10:52:27;;;;;;;17.17;9.57;;;;;;;28.22;nan;-24597.44;5076632;28;20208;-57
2022/05/25 10:54:52;;;;;;;15.43;9.38;;;;;;;28.43;nan;-24603.19;5079130;28;20229;-58
2022/05/25 10:57:26;;;;;;;22.95;10.98;;;;;;;28.77;nan;-24612.38;5079462;28;20215;-58
2022/05/25 11:00:03;;;;;;;17.00;9.82;;;;;;;29.22;nan;-24624.66;5075918;28;20679;-59
2022/05/25 11:02:41;;;;;;;15.60;9.70;;;;;;;28.62;nan;-24608.41;5079820;28;20181;-58
2022/05/25 11:05:23;;;;;;;15.30;9.77;;;;;;;28.80;nan;-24613.31;5079590;28;20192;-59
2022/05/25 11:07:54;;;;;;;17.02;10.05;;;;;;;28.08;nan;-24593.88;5077660;28;20181;-59
2022/05/25 11:10:26;;;;;;;16.02;9.75;;;;;;;28.95;nan;-24617.41;5078564;28;20184;-59
2022/05/25 11:13:13;;;;;;;16.38;9.10;;;;;;;27.54;nan;-24579.25;5078079;28;20250;-60
2022/05/25 11:16:09;;;;;;;18.90;9.77;;;;;;;26.36;nan;-24547.28;5077962;28;20645;-58
2022/05/25 11:19:26;;;;;;;19.10;10.30;;;;;;;26.53;nan;-24551.81;5076711;28;20193;-58
2022/05/25 11:22:17;;;;;;;16.70;9.60;;;;;;;26.35;nan;-24546.84;5001028;28;20615;-58
2022/05/25 11:25:12;;;;;;;20.55;10.90;;;;;;;26.76;nan;-24558.13;5071851;28;20197;-58
2022/05/25 11:28:15;;;;;;;18.85;10.73;;;;;;;27.42;nan;-24575.81;5080883;28;20261;-59
2022/05/25 11:31:06;;;;;;;20.27;10.40;;;;;;;27.84;nan;-24587.19;5074779;28;20185;-59
2022/05/25 11:34:05;;;;;;;23.30;10.98;;;;;;;27.82;nan;-24586.78;5078394;28;20588;-58
2022/05/25 11:36:39;;;;;;;18.27;10.38;;;;;;;26.91;nan;-24562.09;5073847;28;20181;-58
2022/05/25 11:39:31;;;;;;;19.05;10.82;;;;;;;27.29;nan;-24572.25;5077410;28;21056;-58
2022/05/25 11:42:10;;;;;;;19.15;10.77;;;;;;;26.41;nan;-24548.50;5077780;28;20572;-59
2022/05/25 11:45:07;;;;;;;19.50;11.07;;;;;;;27.47;nan;-24577.31;5077243;28;20181;-58
2022/05/25 11:48:02;;;;;;;24.92;11.75;;;;;;;26.79;nan;-24558.78;5079037;28;20265;-58
2022/05/25 11:50:46;;;;;;;22.90;10.98;;;;;;;25.98;nan;-24536.81;5078137;28;20636;-60
2022/05/25 11:53:25;;;;;;;18.15;11.07;;;;;;;25.95;nan;-24536.00;5077156;28;20197;-59
2022/05/25 11:56:04;;;;;;;27.38;12.68;;;;;;;25.70;nan;-24529.25;5110943;27;20260;-58
2022/05/25 11:59:04;;;;;;;19.77;11.00;;;;;;;25.97;nan;-24536.56;5081385;28;20193;-59
2022/05/25 12:01:47;;;;;;;23.90;11.02;;;;;;;26.01;nan;-24537.50;5081545;28;20263;-59
2022/05/25 12:04:52;;;;;;;18.77;10.95;;;;;;;26.25;nan;-24544.25;5093642;28;20557;-59
2022/05/25 12:07:44;;;;;;;22.98;11.82;;;;;;;26.73;nan;-24557.16;5079290;28;20193;-58
2022/05/25 12:10:19;;;;;;;18.48;11.50;;;;;;;27.06;nan;-24566.06;5061450;28;20293;-58
2022/05/25 12:12:58;;;;;;;21.75;11.43;;;;;;;26.69;nan;-24556.06;5076918;28;20234;-59
2022/05/25 12:16:03;;;;;;;24.15;11.82;;;;;;;23.60;nan;-24472.06;5076077;28;20571;-59
2022/05/25 12:18:59;;;;;;;21.20;11.75;;;;;;;25.68;nan;-24528.56;5069824;28;20201;-60
2022/05/25 12:21:40;;;;;;;19.30;11.50;;;;;;;25.38;nan;-24520.59;5076479;28;20215;-58
2022/05/25 12:24:16;;;;;;;22.00;10.05;;;;;;;25.45;nan;-24522.53;5074092;28;20246;-58